sensor_id;sensor_type;location;lat;lon;timestamp;P1;durP1;ratioP1;P2;durP2;ratioP2
50219;SDS011;36110;51.536;7.562;2023-02-28T00:01:20;6.95;;;3.95;;
50219;SDS011;36110;51.536;7.562;2023-02-28T00:03:46;3.78;;;2.28;;
50219;SDS011;36110;51.536;7.562;2023-02-28T00:06:11;3.97;;;2.80;;
50219;SDS011;36110;51.536;7.562;2023-02-28T00:08:37;8.88;;;4.07;;
50219;SDS011;36110;51.536;7.562;2023-02-28T00:11:07;4.00;;;3.10;;
50219;SDS011;36110;51.536;7.562;2023-02-28T00:13:35;4.90;;;2.30;;
50219;SDS011;36110;51.536;7.562;2023-02-28T00:16:06;2.42;;;2.22;;
50219;SDS011;36110;51.536;7.562;2023-02-28T00:18:36;2.30;;;2.10;;
50219;SDS011;36110;51.536;7.562;2023-02-28T00:21:01;4.82;;;3.30;;
50219;SDS011;36110;51.536;7.562;2023-02-28T00:23:27;1.95;;;1.85;;
50219;SDS011;36110;51.536;7.562;2023-02-28T00:25:54;1.65;;;1.55;;
50219;SDS011;36110;51.536;7.562;2023-02-28T00:28:19;2.60;;;2.08;;
50219;SDS011;36110;51.536;7.562;2023-02-28T00:30:45;2.42;;;1.77;;
50219;SDS011;36110;51.536;7.562;2023-02-28T00:33:10;1.85;;;1.70;;
50219;SDS011;36110;51.536;7.562;2023-02-28T00:35:36;2.30;;;2.10;;
50219;SDS011;36110;51.536;7.562;2023-02-28T00:38:01;2.60;;;2.00;;
50219;SDS011;36110;51.536;7.562;2023-02-28T00:40:27;2.05;;;1.70;;
50219;SDS011;36110;51.536;7.562;2023-02-28T00:42:52;1.88;;;1.77;;
50219;SDS011;36110;51.536;7.562;2023-02-28T00:45:18;2.60;;;1.77;;
50219;SDS011;36110;51.536;7.562;2023-02-28T00:47:43;1.80;;;1.70;;
50219;SDS011;36110;51.536;7.562;2023-02-28T00:50:09;1.92;;;1.83;;
50219;SDS011;36110;51.536;7.562;2023-02-28T00:52:35;1.80;;;1.70;;
50219;SDS011;36110;51.536;7.562;2023-02-28T00:55:00;2.42;;;2.22;;
50219;SDS011;36110;51.536;7.562;2023-02-28T00:57:25;1.60;;;1.50;;
50219;SDS011;36110;51.536;7.562;2023-02-28T00:59:51;2.03;;;1.70;;
50219;SDS011;36110;51.536;7.562;2023-02-28T01:02:19;1.70;;;1.60;;
50219;SDS011;36110;51.536;7.562;2023-02-28T01:04:45;1.90;;;1.80;;
50219;SDS011;36110;51.536;7.562;2023-02-28T01:07:11;1.92;;;1.60;;
50219;SDS011;36110;51.536;7.562;2023-02-28T01:09:36;2.30;;;1.80;;
50219;SDS011;36110;51.536;7.562;2023-02-28T01:12:01;2.05;;;1.70;;
50219;SDS011;36110;51.536;7.562;2023-02-28T01:14:27;2.10;;;1.90;;
50219;SDS011;36110;51.536;7.562;2023-02-28T01:16:52;1.90;;;1.80;;
50219;SDS011;36110;51.536;7.562;2023-02-28T01:19:18;2.00;;;1.80;;
50219;SDS011;36110;51.536;7.562;2023-02-28T01:21:43;1.92;;;1.80;;
50219;SDS011;36110;51.536;7.562;2023-02-28T01:24:08;2.42;;;1.80;;
50219;SDS011;36110;51.536;7.562;2023-02-28T01:26:34;1.58;;;1.48;;
50219;SDS011;36110;51.536;7.562;2023-02-28T01:28:59;1.85;;;1.60;;
50219;SDS011;36110;51.536;7.562;2023-02-28T01:31:24;2.03;;;1.90;;
50219;SDS011;36110;51.536;7.562;2023-02-28T01:33:50;1.73;;;1.63;;
50219;SDS011;36110;51.536;7.562;2023-02-28T01:36:19;1.88;;;1.70;;
50219;SDS011;36110;51.536;7.562;2023-02-28T01:38:46;1.80;;;1.70;;
50219;SDS011;36110;51.536;7.562;2023-02-28T01:41:16;2.05;;;1.90;;
50219;SDS011;36110;51.536;7.562;2023-02-28T01:46:13;1.80;;;1.70;;
50219;SDS011;36110;51.536;7.562;2023-02-28T01:48:40;2.40;;;1.70;;
50219;SDS011;36110;51.536;7.562;2023-02-28T01:51:11;1.80;;;1.70;;
50219;SDS011;36110;51.536;7.562;2023-02-28T01:53:42;2.00;;;1.80;;
50219;SDS011;36110;51.536;7.562;2023-02-28T01:56:10;1.80;;;1.70;;
50219;SDS011;36110;51.536;7.562;2023-02-28T01:58:37;3.03;;;1.80;;
50219;SDS011;36110;51.536;7.562;2023-02-28T02:01:03;1.67;;;1.58;;
50219;SDS011;36110;51.536;7.562;2023-02-28T02:03:29;1.80;;;1.70;;
50219;SDS011;36110;51.536;7.562;2023-02-28T02:05:55;2.53;;;2.30;;
50219;SDS011;36110;51.536;7.562;2023-02-28T02:08:21;2.00;;;1.90;;
50219;SDS011;36110;51.536;7.562;2023-02-28T02:10:50;1.92;;;1.80;;
50219;SDS011;36110;51.536;7.562;2023-02-28T02:18:53;2.55;;;1.80;;
50219;SDS011;36110;51.536;7.562;2023-02-28T02:24:20;1.83;;;1.73;;
50219;SDS011;36110;51.536;7.562;2023-02-28T02:36:00;2.30;;;1.75;;
50219;SDS011;36110;51.536;7.562;2023-02-28T02:41:01;1.65;;;1.55;;
50219;SDS011;36110;51.536;7.562;2023-02-28T02:43:33;1.75;;;1.65;;
50219;SDS011;36110;51.536;7.562;2023-02-28T02:46:09;1.70;;;1.40;;
50219;SDS011;36110;51.536;7.562;2023-02-28T02:48:38;2.92;;;1.77;;
50219;SDS011;36110;51.536;7.562;2023-02-28T02:51:07;2.42;;;1.70;;
50219;SDS011;36110;51.536;7.562;2023-02-28T02:53:59;2.05;;;1.85;;
50219;SDS011;36110;51.536;7.562;2023-02-28T02:56:28;1.70;;;1.60;;
50219;SDS011;36110;51.536;7.562;2023-02-28T02:58:58;1.90;;;1.67;;
50219;SDS011;36110;51.536;7.562;2023-02-28T03:01:26;1.85;;;1.67;;
50219;SDS011;36110;51.536;7.562;2023-02-28T03:03:57;2.03;;;1.60;;
50219;SDS011;36110;51.536;7.562;2023-02-28T03:06:24;2.10;;;1.70;;
50219;SDS011;36110;51.536;7.562;2023-02-28T03:08:50;1.75;;;1.65;;
50219;SDS011;36110;51.536;7.562;2023-02-28T03:11:15;2.03;;;1.70;;
50219;SDS011;36110;51.536;7.562;2023-02-28T03:27:40;1.60;;;1.50;;
50219;SDS011;36110;51.536;7.562;2023-02-28T03:35:21;3.03;;;1.70;;
50219;SDS011;36110;51.536;7.562;2023-02-28T03:37:53;1.85;;;1.73;;
50219;SDS011;36110;51.536;7.562;2023-02-28T03:40:22;1.95;;;1.75;;
50219;SDS011;36110;51.536;7.562;2023-02-28T03:42:51;1.85;;;1.75;;
50219;SDS011;36110;51.536;7.562;2023-02-28T03:45:21;1.73;;;1.63;;
50219;SDS011;36110;51.536;7.562;2023-02-28T03:47:54;2.50;;;1.63;;
50219;SDS011;36110;51.536;7.562;2023-02-28T03:50:33;2.55;;;1.70;;
50219;SDS011;36110;51.536;7.562;2023-02-28T03:53:11;1.70;;;1.58;;
50219;SDS011;36110;51.536;7.562;2023-02-28T03:55:48;2.43;;;2.23;;
50219;SDS011;36110;51.536;7.562;2023-02-28T04:00:47;1.88;;;1.77;;
50219;SDS011;36110;51.536;7.562;2023-02-28T04:03:14;3.60;;;1.90;;
50219;SDS011;36110;51.536;7.562;2023-02-28T04:05:50;2.22;;;1.90;;
50219;SDS011;36110;51.536;7.562;2023-02-28T04:08:17;2.08;;;1.83;;
50219;SDS011;36110;51.536;7.562;2023-02-28T04:10:43;1.92;;;1.73;;
50219;SDS011;36110;51.536;7.562;2023-02-28T04:13:12;2.05;;;1.88;;
50219;SDS011;36110;51.536;7.562;2023-02-28T04:15:37;4.05;;;2.25;;
50219;SDS011;36110;51.536;7.562;2023-02-28T04:18:02;1.90;;;1.65;;
50219;SDS011;36110;51.536;7.562;2023-02-28T04:20:28;2.22;;;1.60;;
50219;SDS011;36110;51.536;7.562;2023-02-28T04:22:53;1.88;;;1.60;;
50219;SDS011;36110;51.536;7.562;2023-02-28T04:25:18;3.03;;;1.67;;
50219;SDS011;36110;51.536;7.562;2023-02-28T04:27:44;2.05;;;1.70;;
50219;SDS011;36110;51.536;7.562;2023-02-28T04:30:10;2.15;;;1.70;;
50219;SDS011;36110;51.536;7.562;2023-02-28T04:32:36;2.40;;;1.80;;
50219;SDS011;36110;51.536;7.562;2023-02-28T04:35:01;1.95;;;1.73;;
50219;SDS011;36110;51.536;7.562;2023-02-28T04:37:27;1.52;;;1.42;;
50219;SDS011;36110;51.536;7.562;2023-02-28T04:39:53;1.92;;;1.50;;
50219;SDS011;36110;51.536;7.562;2023-02-28T04:42:19;1.88;;;1.58;;
50219;SDS011;36110;51.536;7.562;2023-02-28T04:44:44;1.70;;;1.60;;
50219;SDS011;36110;51.536;7.562;2023-02-28T04:47:10;1.52;;;1.42;;
50219;SDS011;36110;51.536;7.562;2023-02-28T04:49:35;1.67;;;1.58;;
50219;SDS011;36110;51.536;7.562;2023-02-28T04:52:00;2.10;;;1.73;;
50219;SDS011;36110;51.536;7.562;2023-02-28T04:54:26;2.30;;;1.73;;
50219;SDS011;36110;51.536;7.562;2023-02-28T04:56:51;1.80;;;1.70;;
50219;SDS011;36110;51.536;7.562;2023-02-28T04:59:17;1.98;;;1.77;;
50219;SDS011;36110;51.536;7.562;2023-02-28T05:01:45;1.63;;;1.52;;
50219;SDS011;36110;51.536;7.562;2023-02-28T05:04:11;2.03;;;1.83;;
50219;SDS011;36110;51.536;7.562;2023-02-28T05:06:36;1.70;;;1.60;;
50219;SDS011;36110;51.536;7.562;2023-02-28T05:09:01;2.25;;;1.70;;
50219;SDS011;36110;51.536;7.562;2023-02-28T05:11:31;2.35;;;1.60;;
50219;SDS011;36110;51.536;7.562;2023-02-28T05:14:02;2.03;;;1.83;;
50219;SDS011;36110;51.536;7.562;2023-02-28T05:16:29;2.03;;;1.83;;
50219;SDS011;36110;51.536;7.562;2023-02-28T05:18:54;2.00;;;1.80;;
50219;SDS011;36110;51.536;7.562;2023-02-28T05:21:25;1.80;;;1.70;;
50219;SDS011;36110;51.536;7.562;2023-02-28T05:24:06;1.77;;;1.67;;
50219;SDS011;36110;51.536;7.562;2023-02-28T05:26:34;1.70;;;1.60;;
50219;SDS011;36110;51.536;7.562;2023-02-28T05:29:01;1.83;;;1.70;;
50219;SDS011;36110;51.536;7.562;2023-02-28T05:31:26;2.15;;;1.95;;
50219;SDS011;36110;51.536;7.562;2023-02-28T05:33:51;2.20;;;1.83;;
50219;SDS011;36110;51.536;7.562;2023-02-28T05:36:17;2.53;;;1.83;;
50219;SDS011;36110;51.536;7.562;2023-02-28T05:38:43;1.83;;;1.73;;
50219;SDS011;36110;51.536;7.562;2023-02-28T05:41:11;2.60;;;1.70;;
50219;SDS011;36110;51.536;7.562;2023-02-28T05:43:37;2.17;;;1.80;;
50219;SDS011;36110;51.536;7.562;2023-02-28T05:46:05;1.98;;;1.67;;
50219;SDS011;36110;51.536;7.562;2023-02-28T05:48:33;1.70;;;1.60;;
50219;SDS011;36110;51.536;7.562;2023-02-28T05:50:59;2.05;;;1.58;;
50219;SDS011;36110;51.536;7.562;2023-02-28T05:53:25;2.22;;;1.70;;
50219;SDS011;36110;51.536;7.562;2023-02-28T05:55:51;1.83;;;1.73;;
50219;SDS011;36110;51.536;7.562;2023-02-28T05:58:16;1.80;;;1.70;;
50219;SDS011;36110;51.536;7.562;2023-02-28T06:00:42;1.92;;;1.58;;
50219;SDS011;36110;51.536;7.562;2023-02-28T06:03:07;2.25;;;1.88;;
50219;SDS011;36110;51.536;7.562;2023-02-28T06:05:32;2.38;;;1.75;;
50219;SDS011;36110;51.536;7.562;2023-02-28T06:07:58;1.70;;;1.60;;
50219;SDS011;36110;51.536;7.562;2023-02-28T06:10:23;2.05;;;1.70;;
50219;SDS011;36110;51.536;7.562;2023-02-28T06:12:48;1.88;;;1.70;;
50219;SDS011;36110;51.536;7.562;2023-02-28T06:15:15;1.75;;;1.65;;
50219;SDS011;36110;51.536;7.562;2023-02-28T06:17:42;2.25;;;1.67;;
50219;SDS011;36110;51.536;7.562;2023-02-28T06:20:08;1.90;;;1.70;;
50219;SDS011;36110;51.536;7.562;2023-02-28T06:22:35;2.95;;;1.98;;
50219;SDS011;36110;51.536;7.562;2023-02-28T06:25:00;1.98;;;1.70;;
50219;SDS011;36110;51.536;7.562;2023-02-28T06:27:26;2.20;;;1.80;;
50219;SDS011;36110;51.536;7.562;2023-02-28T06:29:53;2.78;;;1.65;;
50219;SDS011;36110;51.536;7.562;2023-02-28T06:32:20;2.17;;;1.80;;
50219;SDS011;36110;51.536;7.562;2023-02-28T06:34:45;2.17;;;1.70;;
50219;SDS011;36110;51.536;7.562;2023-02-28T06:37:11;1.75;;;1.65;;
50219;SDS011;36110;51.536;7.562;2023-02-28T06:39:36;1.80;;;1.67;;
50219;SDS011;36110;51.536;7.562;2023-02-28T06:42:01;9.57;;;4.97;;
50219;SDS011;36110;51.536;7.562;2023-02-28T06:44:27;10.27;;;5.40;;
50219;SDS011;36110;51.536;7.562;2023-02-28T06:47:03;8.68;;;5.40;;
50219;SDS011;36110;51.536;7.562;2023-02-28T06:49:30;11.68;;;5.65;;
50219;SDS011;36110;51.536;7.562;2023-02-28T06:51:56;11.50;;;5.88;;
50219;SDS011;36110;51.536;7.562;2023-02-28T06:54:21;10.50;;;5.88;;
50219;SDS011;36110;51.536;7.562;2023-02-28T06:56:46;9.65;;;6.15;;
50219;SDS011;36110;51.536;7.562;2023-02-28T06:59:12;11.30;;;5.72;;
50219;SDS011;36110;51.536;7.562;2023-02-28T07:01:38;5.68;;;4.70;;
50219;SDS011;36110;51.536;7.562;2023-02-28T07:04:04;9.50;;;5.47;;
50219;SDS011;36110;51.536;7.562;2023-02-28T07:06:30;10.93;;;5.63;;
50219;SDS011;36110;51.536;7.562;2023-02-28T07:08:56;9.60;;;5.57;;
50219;SDS011;36110;51.536;7.562;2023-02-28T07:11:22;7.50;;;5.28;;
50219;SDS011;36110;51.536;7.562;2023-02-28T07:13:50;8.35;;;5.32;;
50219;SDS011;36110;51.536;7.562;2023-02-28T07:16:16;10.10;;;5.75;;
50219;SDS011;36110;51.536;7.562;2023-02-28T07:18:41;10.07;;;5.50;;
50219;SDS011;36110;51.536;7.562;2023-02-28T07:21:07;8.60;;;5.45;;
50219;SDS011;36110;51.536;7.562;2023-02-28T07:23:34;11.40;;;5.30;;
50219;SDS011;36110;51.536;7.562;2023-02-28T07:26:00;7.43;;;4.88;;
50219;SDS011;36110;51.536;7.562;2023-02-28T07:28:25;9.40;;;5.20;;
50219;SDS011;36110;51.536;7.562;2023-02-28T07:30:50;10.40;;;5.10;;
50219;SDS011;36110;51.536;7.562;2023-02-28T07:33:16;7.20;;;5.28;;
50219;SDS011;36110;51.536;7.562;2023-02-28T07:35:41;8.90;;;5.13;;
50219;SDS011;36110;51.536;7.562;2023-02-28T07:38:07;9.48;;;5.10;;
50219;SDS011;36110;51.536;7.562;2023-02-28T07:40:33;11.15;;;5.53;;
50219;SDS011;36110;51.536;7.562;2023-02-28T07:43:02;8.95;;;4.85;;
50219;SDS011;36110;51.536;7.562;2023-02-28T07:45:28;7.88;;;4.80;;
50219;SDS011;36110;51.536;7.562;2023-02-28T07:47:54;8.10;;;4.47;;
50219;SDS011;36110;51.536;7.562;2023-02-28T07:50:20;11.55;;;5.25;;
50219;SDS011;36110;51.536;7.562;2023-02-28T07:52:45;9.13;;;4.70;;
50219;SDS011;36110;51.536;7.562;2023-02-28T07:55:11;6.47;;;4.82;;
50219;SDS011;36110;51.536;7.562;2023-02-28T07:57:37;7.72;;;4.65;;
50219;SDS011;36110;51.536;7.562;2023-02-28T08:00:03;8.05;;;4.63;;
50219;SDS011;36110;51.536;7.562;2023-02-28T08:02:30;9.63;;;5.80;;
50219;SDS011;36110;51.536;7.562;2023-02-28T08:04:55;7.20;;;4.85;;
50219;SDS011;36110;51.536;7.562;2023-02-28T08:07:21;7.28;;;4.85;;
50219;SDS011;36110;51.536;7.562;2023-02-28T08:09:46;12.02;;;6.22;;
50219;SDS011;36110;51.536;7.562;2023-02-28T08:12:11;7.10;;;4.57;;
50219;SDS011;36110;51.536;7.562;2023-02-28T08:14:37;9.77;;;5.63;;
50219;SDS011;36110;51.536;7.562;2023-02-28T08:17:08;8.50;;;5.35;;
50219;SDS011;36110;51.536;7.562;2023-02-28T08:19:37;8.93;;;5.45;;
50219;SDS011;36110;51.536;7.562;2023-02-28T08:22:10;7.68;;;5.43;;
50219;SDS011;36110;51.536;7.562;2023-02-28T08:25:18;7.05;;;4.93;;
50219;SDS011;36110;51.536;7.562;2023-02-28T08:27:50;8.95;;;5.35;;
50219;SDS011;36110;51.536;7.562;2023-02-28T08:30:36;7.88;;;5.35;;
50219;SDS011;36110;51.536;7.562;2023-02-28T08:33:02;7.07;;;3.90;;
50219;SDS011;36110;51.536;7.562;2023-02-28T08:35:47;6.13;;;3.87;;
50219;SDS011;36110;51.536;7.562;2023-02-28T08:38:23;8.75;;;4.10;;
50219;SDS011;36110;51.536;7.562;2023-02-28T08:40:49;7.07;;;4.38;;
50219;SDS011;36110;51.536;7.562;2023-02-28T08:43:14;8.45;;;4.70;;
50219;SDS011;36110;51.536;7.562;2023-02-28T08:45:39;11.75;;;4.18;;
50219;SDS011;36110;51.536;7.562;2023-02-28T08:48:05;7.55;;;4.50;;
50219;SDS011;36110;51.536;7.562;2023-02-28T08:50:30;6.07;;;3.63;;
50219;SDS011;36110;51.536;7.562;2023-02-28T08:52:56;6.70;;;4.15;;
50219;SDS011;36110;51.536;7.562;2023-02-28T08:55:21;6.53;;;4.25;;
50219;SDS011;36110;51.536;7.562;2023-02-28T08:57:46;7.35;;;3.72;;
50219;SDS011;36110;51.536;7.562;2023-02-28T09:00:12;7.32;;;3.63;;
50219;SDS011;36110;51.536;7.562;2023-02-28T09:02:38;4.82;;;4.18;;
50219;SDS011;36110;51.536;7.562;2023-02-28T09:05:04;7.53;;;3.63;;
50219;SDS011;36110;51.536;7.562;2023-02-28T09:07:29;5.97;;;4.32;;
50219;SDS011;36110;51.536;7.562;2023-02-28T09:09:55;4.50;;;3.70;;
50219;SDS011;36110;51.536;7.562;2023-02-28T09:12:23;6.53;;;3.70;;
50219;SDS011;36110;51.536;7.562;2023-02-28T09:14:50;5.63;;;3.55;;
50219;SDS011;36110;51.536;7.562;2023-02-28T09:17:15;7.97;;;3.60;;
50219;SDS011;36110;51.536;7.562;2023-02-28T09:19:41;5.68;;;3.20;;
50219;SDS011;36110;51.536;7.562;2023-02-28T09:22:07;5.80;;;3.15;;
50219;SDS011;36110;51.536;7.562;2023-02-28T09:24:32;6.97;;;3.58;;
50219;SDS011;36110;51.536;7.562;2023-02-28T09:26:58;9.27;;;3.70;;
50219;SDS011;36110;51.536;7.562;2023-02-28T09:29:23;9.73;;;3.92;;
50219;SDS011;36110;51.536;7.562;2023-02-28T09:31:48;5.95;;;4.00;;
50219;SDS011;36110;51.536;7.562;2023-02-28T09:34:14;8.93;;;3.95;;
50219;SDS011;36110;51.536;7.562;2023-02-28T09:36:42;9.02;;;3.90;;
50219;SDS011;36110;51.536;7.562;2023-02-28T09:39:07;6.13;;;3.67;;
50219;SDS011;36110;51.536;7.562;2023-02-28T09:41:40;6.55;;;3.75;;
50219;SDS011;36110;51.536;7.562;2023-02-28T09:44:15;5.55;;;3.42;;
50219;SDS011;36110;51.536;7.562;2023-02-28T09:46:48;4.90;;;3.35;;
50219;SDS011;36110;51.536;7.562;2023-02-28T09:49:18;5.72;;;3.45;;
50219;SDS011;36110;51.536;7.562;2023-02-28T09:52:45;4.97;;;3.25;;
50219;SDS011;36110;51.536;7.562;2023-02-28T09:54:44;5.22;;;2.90;;
50219;SDS011;36110;51.536;7.562;2023-02-28T10:08:19;4.38;;;2.58;;
50219;SDS011;36110;51.536;7.562;2023-02-28T10:11:12;3.00;;;2.50;;
50219;SDS011;36110;51.536;7.562;2023-02-28T10:19:22;3.10;;;2.40;;
50219;SDS011;36110;51.536;7.562;2023-02-28T10:24:29;4.30;;;3.15;;
50219;SDS011;36110;51.536;7.562;2023-02-28T10:26:57;3.38;;;2.13;;
50219;SDS011;36110;51.536;7.562;2023-02-28T10:29:25;5.05;;;2.35;;
50219;SDS011;36110;51.536;7.562;2023-02-28T10:31:51;3.20;;;2.08;;
50219;SDS011;36110;51.536;7.562;2023-02-28T10:34:17;5.05;;;2.35;;
50219;SDS011;36110;51.536;7.562;2023-02-28T10:36:42;3.95;;;2.20;;
50219;SDS011;36110;51.536;7.562;2023-02-28T10:42:00;2.63;;;2.28;;
50219;SDS011;36110;51.536;7.562;2023-02-28T10:44:25;3.60;;;2.30;;
50219;SDS011;36110;51.536;7.562;2023-02-28T10:46:51;2.78;;;2.45;;
50219;SDS011;36110;51.536;7.562;2023-02-28T10:49:20;5.18;;;2.20;;
50219;SDS011;36110;51.536;7.562;2023-02-28T10:51:49;3.58;;;2.10;;
50219;SDS011;36110;51.536;7.562;2023-02-28T10:54:30;2.85;;;2.28;;
50219;SDS011;36110;51.536;7.562;2023-02-28T10:57:15;2.53;;;2.10;;
50219;SDS011;36110;51.536;7.562;2023-02-28T10:59:43;4.18;;;2.53;;
50219;SDS011;36110;51.536;7.562;2023-02-28T11:02:29;5.00;;;2.40;;
50219;SDS011;36110;51.536;7.562;2023-02-28T11:04:59;3.55;;;2.10;;
50219;SDS011;36110;51.536;7.562;2023-02-28T11:07:25;3.10;;;2.25;;
50219;SDS011;36110;51.536;7.562;2023-02-28T11:09:52;4.40;;;2.20;;
50219;SDS011;36110;51.536;7.562;2023-02-28T11:12:37;3.15;;;2.58;;
50219;SDS011;36110;51.536;7.562;2023-02-28T11:15:21;4.97;;;2.85;;
50219;SDS011;36110;51.536;7.562;2023-02-28T11:17:53;3.33;;;2.28;;
50219;SDS011;36110;51.536;7.562;2023-02-28T11:20:41;2.63;;;2.10;;
50219;SDS011;36110;51.536;7.562;2023-02-28T11:23:10;3.80;;;2.20;;
50219;SDS011;36110;51.536;7.562;2023-02-28T11:25:37;2.40;;;2.13;;
50219;SDS011;36110;51.536;7.562;2023-02-28T11:28:05;4.88;;;2.60;;
50219;SDS011;36110;51.536;7.562;2023-02-28T11:33:16;3.05;;;2.50;;
50219;SDS011;36110;51.536;7.562;2023-02-28T11:35:46;4.22;;;2.67;;
50219;SDS011;36110;51.536;7.562;2023-02-28T11:38:13;3.47;;;2.40;;
50219;SDS011;36110;51.536;7.562;2023-02-28T11:48:33;4.63;;;2.53;;
50219;SDS011;36110;51.536;7.562;2023-02-28T11:51:05;3.67;;;2.45;;
50219;SDS011;36110;51.536;7.562;2023-02-28T11:56:20;3.60;;;2.55;;
50219;SDS011;36110;51.536;7.562;2023-02-28T12:02:40;3.92;;;2.58;;
50219;SDS011;36110;51.536;7.562;2023-02-28T12:07:39;2.70;;;2.45;;
50219;SDS011;36110;51.536;7.562;2023-02-28T12:10:13;5.22;;;3.35;;
50219;SDS011;36110;51.536;7.562;2023-02-28T12:15:24;4.03;;;2.65;;
50219;SDS011;36110;51.536;7.562;2023-02-28T12:18:13;6.93;;;2.95;;
50219;SDS011;36110;51.536;7.562;2023-02-28T12:20:54;6.53;;;3.03;;
50219;SDS011;36110;51.536;7.562;2023-02-28T12:26:31;5.30;;;3.20;;
50219;SDS011;36110;51.536;7.562;2023-02-28T12:28:42;4.53;;;2.97;;
50219;SDS011;36110;51.536;7.562;2023-02-28T12:31:14;6.75;;;3.45;;
50219;SDS011;36110;51.536;7.562;2023-02-28T12:33:43;5.82;;;3.00;;
50219;SDS011;36110;51.536;7.562;2023-02-28T12:36:12;3.53;;;2.80;;
50219;SDS011;36110;51.536;7.562;2023-02-28T12:38:47;3.25;;;2.70;;
50219;SDS011;36110;51.536;7.562;2023-02-28T12:41:16;4.32;;;2.60;;
50219;SDS011;36110;51.536;7.562;2023-02-28T12:43:55;3.78;;;2.58;;
50219;SDS011;36110;51.536;7.562;2023-02-28T12:46:30;5.68;;;2.97;;
50219;SDS011;36110;51.536;7.562;2023-02-28T12:49:12;4.03;;;3.13;;
50219;SDS011;36110;51.536;7.562;2023-02-28T12:51:40;5.30;;;3.08;;
50219;SDS011;36110;51.536;7.562;2023-02-28T12:54:12;5.50;;;3.25;;
50219;SDS011;36110;51.536;7.562;2023-02-28T12:59:34;4.90;;;3.08;;
50219;SDS011;36110;51.536;7.562;2023-02-28T13:02:18;3.70;;;2.70;;
50219;SDS011;36110;51.536;7.562;2023-02-28T13:05:02;4.50;;;3.20;;
50219;SDS011;36110;51.536;7.562;2023-02-28T13:12:34;5.83;;;3.40;;
50219;SDS011;36110;51.536;7.562;2023-02-28T13:15:04;5.60;;;3.50;;
50219;SDS011;36110;51.536;7.562;2023-02-28T13:17:37;7.47;;;2.95;;
50219;SDS011;36110;51.536;7.562;2023-02-28T13:20:13;3.28;;;2.92;;
50219;SDS011;36110;51.536;7.562;2023-02-28T13:22:45;4.60;;;3.28;;
50219;SDS011;36110;51.536;7.562;2023-02-28T13:27:48;3.25;;;2.95;;
50219;SDS011;36110;51.536;7.562;2023-02-28T13:38:47;5.43;;;3.58;;
50219;SDS011;36110;51.536;7.562;2023-02-28T13:46:36;4.95;;;3.83;;
50219;SDS011;36110;51.536;7.562;2023-02-28T13:51:48;4.60;;;3.30;;
50219;SDS011;36110;51.536;7.562;2023-02-28T13:54:20;6.25;;;3.13;;
50219;SDS011;36110;51.536;7.562;2023-02-28T14:00:18;4.18;;;3.30;;
50219;SDS011;36110;51.536;7.562;2023-02-28T14:05:36;4.95;;;3.60;;
50219;SDS011;36110;51.536;7.562;2023-02-28T14:08:16;8.43;;;3.50;;
50219;SDS011;36110;51.536;7.562;2023-02-28T14:13:14;5.97;;;3.58;;
50219;SDS011;36110;51.536;7.562;2023-02-28T14:16:04;5.53;;;3.33;;
50219;SDS011;36110;51.536;7.562;2023-02-28T14:18:32;5.13;;;3.40;;
50219;SDS011;36110;51.536;7.562;2023-02-28T14:21:02;4.95;;;3.17;;
50219;SDS011;36110;51.536;7.562;2023-02-28T14:29:23;4.93;;;3.33;;
50219;SDS011;36110;51.536;7.562;2023-02-28T14:38:16;3.20;;;2.90;;
50219;SDS011;36110;51.536;7.562;2023-02-28T14:40:47;7.22;;;3.13;;
50219;SDS011;36110;51.536;7.562;2023-02-28T14:43:19;3.25;;;2.95;;
50219;SDS011;36110;51.536;7.562;2023-02-28T14:45:49;3.28;;;2.90;;
50219;SDS011;36110;51.536;7.562;2023-02-28T14:48:16;3.88;;;3.47;;
50219;SDS011;36110;51.536;7.562;2023-02-28T14:50:42;3.63;;;3.15;;
50219;SDS011;36110;51.536;7.562;2023-02-28T14:53:15;3.65;;;2.97;;
50219;SDS011;36110;51.536;7.562;2023-02-28T14:55:44;5.07;;;3.22;;
50219;SDS011;36110;51.536;7.562;2023-02-28T14:58:24;3.13;;;2.78;;
50219;SDS011;36110;51.536;7.562;2023-02-28T15:00:58;5.70;;;3.60;;
50219;SDS011;36110;51.536;7.562;2023-02-28T15:03:34;4.50;;;3.38;;
50219;SDS011;36110;51.536;7.562;2023-02-28T15:06:21;5.05;;;3.35;;
50219;SDS011;36110;51.536;7.562;2023-02-28T15:08:48;4.28;;;3.17;;
50219;SDS011;36110;51.536;7.562;2023-02-28T15:11:14;4.93;;;3.80;;
50219;SDS011;36110;51.536;7.562;2023-02-28T15:13:53;6.10;;;3.53;;
50219;SDS011;36110;51.536;7.562;2023-02-28T15:16:25;3.67;;;2.78;;
50219;SDS011;36110;51.536;7.562;2023-02-28T15:18:54;5.75;;;3.33;;
50219;SDS011;36110;51.536;7.562;2023-02-28T15:21:26;5.50;;;3.35;;
50219;SDS011;36110;51.536;7.562;2023-02-28T15:23:57;4.03;;;3.30;;
50219;SDS011;36110;51.536;7.562;2023-02-28T15:26:29;5.93;;;3.28;;
50219;SDS011;36110;51.536;7.562;2023-02-28T15:29:07;13.80;;;3.67;;
50219;SDS011;36110;51.536;7.562;2023-02-28T15:31:45;7.53;;;3.80;;
50219;SDS011;36110;51.536;7.562;2023-02-28T15:34:20;4.18;;;3.40;;
50219;SDS011;36110;51.536;7.562;2023-02-28T15:39:55;5.03;;;3.63;;
50219;SDS011;36110;51.536;7.562;2023-02-28T15:42:22;5.00;;;3.20;;
50219;SDS011;36110;51.536;7.562;2023-02-28T15:44:48;11.57;;;3.67;;
50219;SDS011;36110;51.536;7.562;2023-02-28T15:47:21;4.13;;;3.10;;
50219;SDS011;36110;51.536;7.562;2023-02-28T15:49:49;4.97;;;3.60;;
50219;SDS011;36110;51.536;7.562;2023-02-28T15:52:17;5.07;;;3.22;;
50219;SDS011;36110;51.536;7.562;2023-02-28T15:54:44;9.05;;;4.20;;
50219;SDS011;36110;51.536;7.562;2023-02-28T15:57:13;4.97;;;3.20;;
50219;SDS011;36110;51.536;7.562;2023-02-28T15:59:48;5.43;;;3.05;;
50219;SDS011;36110;51.536;7.562;2023-02-28T16:02:16;9.10;;;3.17;;
50219;SDS011;36110;51.536;7.562;2023-02-28T16:07:31;4.30;;;3.20;;
50219;SDS011;36110;51.536;7.562;2023-02-28T16:09:56;7.95;;;3.50;;
50219;SDS011;36110;51.536;7.562;2023-02-28T16:12:24;5.47;;;3.30;;
50219;SDS011;36110;51.536;7.562;2023-02-28T16:14:54;5.63;;;3.33;;
50219;SDS011;36110;51.536;7.562;2023-02-28T16:17:22;4.40;;;3.10;;
50219;SDS011;36110;51.536;7.562;2023-02-28T16:19:49;4.63;;;3.20;;
50219;SDS011;36110;51.536;7.562;2023-02-28T16:22:14;5.20;;;3.30;;
50219;SDS011;36110;51.536;7.562;2023-02-28T16:24:40;4.25;;;3.17;;
50219;SDS011;36110;51.536;7.562;2023-02-28T16:27:06;4.55;;;2.88;;
50219;SDS011;36110;51.536;7.562;2023-02-28T16:29:32;4.15;;;3.17;;
50219;SDS011;36110;51.536;7.562;2023-02-28T16:32:00;5.32;;;3.03;;
50219;SDS011;36110;51.536;7.562;2023-02-28T16:34:26;4.28;;;3.28;;
50219;SDS011;36110;51.536;7.562;2023-02-28T16:36:51;4.57;;;3.17;;
50219;SDS011;36110;51.536;7.562;2023-02-28T16:39:16;3.58;;;3.22;;
50219;SDS011;36110;51.536;7.562;2023-02-28T16:41:43;4.35;;;3.20;;
50219;SDS011;36110;51.536;7.562;2023-02-28T16:44:11;3.35;;;3.05;;
50219;SDS011;36110;51.536;7.562;2023-02-28T16:46:38;3.85;;;3.10;;
50219;SDS011;36110;51.536;7.562;2023-02-28T16:49:04;4.50;;;3.25;;
50219;SDS011;36110;51.536;7.562;2023-02-28T16:51:29;4.57;;;3.00;;
50219;SDS011;36110;51.536;7.562;2023-02-28T16:53:54;4.40;;;3.05;;
50219;SDS011;36110;51.536;7.562;2023-02-28T16:56:21;5.55;;;2.80;;
50219;SDS011;36110;51.536;7.562;2023-02-28T16:58:48;4.65;;;3.53;;
50219;SDS011;36110;51.536;7.562;2023-02-28T17:01:14;6.43;;;3.45;;
50219;SDS011;36110;51.536;7.562;2023-02-28T17:03:39;6.32;;;3.60;;
50219;SDS011;36110;51.536;7.562;2023-02-28T17:06:12;4.65;;;3.25;;
50219;SDS011;36110;51.536;7.562;2023-02-28T17:08:42;5.22;;;3.58;;
50219;SDS011;36110;51.536;7.562;2023-02-28T17:11:08;4.78;;;3.60;;
50219;SDS011;36110;51.536;7.562;2023-02-28T17:13:33;5.57;;;3.35;;
50219;SDS011;36110;51.536;7.562;2023-02-28T17:16:02;4.85;;;3.10;;
50219;SDS011;36110;51.536;7.562;2023-02-28T17:18:28;3.75;;;3.05;;
50219;SDS011;36110;51.536;7.562;2023-02-28T17:20:58;4.90;;;3.30;;
50219;SDS011;36110;51.536;7.562;2023-02-28T17:23:24;9.07;;;3.38;;